Terminal Aerodrome Forecast
Issued by NWS Wichita, KS

Home | Current Version | Previous Version | Text Only | Print | Product List | Glossary Off
Versions: 1 2 3 4 5 6 7 8 9 10 11 12 13 14 15 16 17 18 19 20 21 22 23 24

000
FTUS43 KICT 132339
TAFICT
TAF
KICT 132339Z 1400/1424 18006KT P6SM FEW050 BKN200
     FM140700 16006KT P6SM BKN200
     FM141000 16005KT P6SM BKN006
     FM141200 16005KT P6SM BKN015
     FM141300 16005KT P6SM BKN030
     FM141700 17008KT P6SM SCT040=

USA.gov is the U.S. government's official web portal to all federal, state and local government web resources and services.